Time;durP1;ratioP1;P1;durP2;ratioP2;P2;SDS_P1;SDS_P2;PMS_P1;PMS_P2;Temp;Humidity;BMP_temperature;BMP_pressure;BME280_temperature;BME280_humidity;BME280_pressure;Samples;Min_cycle;Max_cycle;Signal;HPM_P1;HPM_P2
2023/03/26 00:01:57;;;;;;;;;2.00;2.00;;;;;18.69;45.75;100295.94;5075814;28;45505;-72
2023/03/26 00:04:24;;;;;;;;;3.00;2.00;;;;;18.59;46.21;100311.00;5068167;27;45622;-73
2023/03/26 00:06:50;;;;;;;;;1.67;1.33;;;;;18.53;47.62;100323.38;5060218;28;45536;-73
2023/03/26 00:09:15;;;;;;;;;1.67;1.00;;;;;18.42;47.52;100341.94;5078664;27;45550;-73
2023/03/26 00:11:42;;;;;;;;;1.67;1.67;;;;;18.14;49.58;100339.44;5078989;28;45533;-73
2023/03/26 00:14:12;;;;;;;;;0.67;0.67;;;;;18.09;48.81;100349.16;5079491;28;46375;-72
2023/03/26 00:16:40;;;;;;;;;0.67;0.67;;;;;18.00;49.73;100351.84;5054903;28;45432;-72
2023/03/26 00:19:06;;;;;;;;;2.00;2.00;;;;;17.87;49.62;100343.94;5077901;27;45338;-78
2023/03/26 00:21:32;;;;;;;;;1.67;1.67;;;;;17.86;50.09;100371.25;5077483;27;45533;-72
2023/03/26 00:24:06;;;;;;;;;1.67;1.67;;;;;17.74;51.61;100378.31;5079108;28;45285;-73
2023/03/26 00:26:33;;;;;;;;;0.33;0.33;;;;;17.67;50.79;100372.16;5077567;27;45382;-81
2023/03/26 00:29:02;;;;;;;;;1.67;0.67;;;;;17.61;51.41;100391.53;5073078;28;45500;-72
2023/03/26 00:31:28;;;;;;;;;1.00;0.67;;;;;17.47;51.71;100388.03;5040615;28;45438;-74
2023/03/26 00:33:54;;;;;;;;;1.00;1.00;;;;;17.39;53.10;100392.41;5059857;28;45374;-73
2023/03/26 00:36:22;;;;;;;;;1.67;1.00;;;;;17.30;53.56;100395.94;5061859;28;46025;-73
2023/03/26 00:38:47;;;;;;;;;1.67;0.00;;;;;17.25;53.60;100392.44;5079051;28;45457;-88
2023/03/26 00:41:16;;;;;;;;;2.00;1.00;;;;;17.24;53.67;100409.16;5060740;28;45382;-78
2023/03/26 00:43:47;;;;;;;;;3.00;1.00;;;;;17.22;53.92;100409.16;5078967;28;46059;-75
2023/03/26 00:46:12;;;;;;;;;1.00;1.00;;;;;17.04;54.85;100412.66;5076857;28;45534;-80
2023/03/26 00:48:41;;;;;;;;;1.00;1.00;;;;;16.97;55.38;100412.63;5079239;27;45463;-81
2023/03/26 00:51:09;;;;;;;;;2.33;1.67;;;;;16.69;56.88;100418.72;5079657;28;45594;-87
2023/03/26 00:53:37;;;;;;;;;1.33;1.00;;;;;16.54;56.69;100415.16;5079011;28;46308;-87
2023/03/26 00:56:04;;;;;;;;;0.67;0.33;;;;;16.48;55.90;100403.69;5076285;28;45736;-86
2023/03/26 00:58:29;;;;;;;;;1.33;1.33;;;;;16.52;57.32;100419.53;5071967;28;45520;-87
2023/03/26 01:00:58;;;;;;;;;1.00;1.00;;;;;16.44;57.28;100420.38;5057752;28;45428;-86
2023/03/26 01:03:29;;;;;;;;;1.00;1.00;;;;;16.33;57.75;100414.16;5076175;28;45525;-85
2023/03/26 01:06:06;;;;;;;;;2.33;1.67;;;;;16.23;59.45;100420.28;5060088;28;45792;-79
2023/03/26 01:08:50;;;;;;;;;2.00;1.00;;;;;16.24;59.40;100435.22;5077924;28;45461;-75
2023/03/26 01:11:25;;;;;;;;;1.67;0.00;;;;;16.21;58.33;100433.44;5079128;28;45520;-76
2023/03/26 01:14:03;;;;;;;;;1.00;0.33;;;;;16.18;57.54;100428.16;5077318;28;45653;-90
2023/03/26 01:16:53;;;;;;;;;1.00;0.00;;;;;16.15;57.83;100432.53;5072528;28;45545;-89
2023/03/26 01:19:44;;;;;;;;;1.00;0.00;;;;;15.99;57.56;100418.41;5078956;28;45516;-88
2023/03/26 01:22:13;;;;;;;;;2.00;0.00;;;;;15.97;57.31;100436.81;5079706;28;45324;-89
2023/03/26 01:24:40;;;;;;;;;0.00;0.00;;;;;15.98;57.58;100417.53;5077873;28;47910;-82
2023/03/26 01:27:30;;;;;;;;;0.33;0.00;;;;;15.98;57.44;100428.06;5078903;28;45393;-83
2023/03/26 01:30:06;;;;;;;;;0.33;0.00;;;;;16.00;57.36;100434.22;5059987;28;45585;-89
2023/03/26 01:32:49;;;;;;;;;0.00;0.00;;;;;16.01;57.33;100435.09;5077938;27;45290;-77
2023/03/26 01:35:45;;;;;;;;;1.00;0.00;;;;;16.01;57.57;100438.59;5078091;27;45353;-79
2023/03/26 01:38:48;;;;;;;;;1.00;0.00;;;;;15.96;58.17;100440.34;5077868;28;45505;-73
2023/03/26 01:41:20;;;;;;;;;1.00;0.00;;;;;15.97;57.86;100444.72;5060297;28;45321;-76
2023/03/26 01:44:03;;;;;;;;;0.00;0.00;;;;;16.02;57.77;100436.88;5079054;28;45486;-77
2023/03/26 01:46:35;;;;;;;;;0.00;0.00;;;;;15.96;57.93;100434.19;5078232;27;46069;-72
2023/03/26 01:49:05;;;;;;;;;0.00;0.00;;;;;15.88;56.84;100416.59;5077887;28;45424;-76
2023/03/26 01:51:35;;;;;;;;;1.00;1.00;;;;;15.95;57.56;100433.28;5078018;28;45378;-77
2023/03/26 01:54:03;;;;;;;;;1.00;0.33;;;;;15.87;58.45;100413.94;5078010;28;45480;-74
2023/03/26 01:56:40;;;;;;;;;0.00;0.00;;;;;15.83;58.22;100427.97;5077572;28;46308;-77
2023/03/26 01:59:15;;;;;;;;;1.00;0.00;;;;;15.80;58.08;100404.25;5077080;28;45698;-75
2023/03/26 02:01:53;;;;;;;;;3.00;2.00;;;;;15.90;58.50;100420.09;5059543;28;45331;-73
2023/03/26 02:04:37;;;;;;;;;1.67;0.00;;;;;15.94;58.18;100425.41;5077040;28;45610;-79
2023/03/26 02:07:13;;;;;;;;;0.33;0.00;;;;;15.91;57.92;100427.13;5076475;28;45421;-73
2023/03/26 02:09:48;;;;;;;;;0.00;0.00;;;;;15.85;57.82;100420.94;5077377;28;45267;-72
2023/03/26 02:12:15;;;;;;;;;1.33;0.00;;;;;15.84;57.43;100419.19;5077680;28;45473;-72
2023/03/26 02:14:41;;;;;;;;;1.00;0.00;;;;;15.84;57.57;100420.06;5092461;27;45430;-76
2023/03/26 02:17:09;;;;;;;;;0.00;0.00;;;;;15.81;57.57;100419.16;5077457;28;45506;-73
2023/03/26 02:19:35;;;;;;;;;0.67;0.00;;;;;15.77;57.08;100409.47;5077076;28;45469;-73
2023/03/26 02:22:01;;;;;;;;;1.00;1.00;;;;;15.85;57.21;100427.09;5077571;28;45845;-72
2023/03/26 02:24:27;;;;;;;;;2.00;1.00;;;;;15.72;56.59;100419.97;5076809;28;45312;-72
2023/03/26 02:26:52;;;;;;;;;2.00;2.00;;;;;15.73;56.15;100415.59;5059073;28;46378;-72
2023/03/26 02:29:19;;;;;;;;;2.00;2.00;;;;;15.74;56.10;100415.63;5076904;28;45508;-72
2023/03/26 02:31:47;;;;;;;;;1.00;1.00;;;;;15.72;56.19;100409.44;5077726;28;45504;-72
2023/03/26 02:34:13;;;;;;;;;3.67;3.00;;;;;15.79;55.87;100423.53;5076281;28;45413;-72
2023/03/26 02:36:41;;;;;;;;;1.00;0.67;;;;;15.70;55.60;100413.81;5077398;27;45394;-75
2023/03/26 02:39:10;;;;;;;;;1.00;0.00;;;;;15.77;55.36;100430.56;5077359;28;45600;-78
2023/03/26 02:41:37;;;;;;;;;1.00;1.00;;;;;15.77;55.09;100425.28;5076738;28;45299;-74
2023/03/26 02:44:04;;;;;;;;;1.00;1.00;;;;;15.68;54.79;100421.69;5077609;28;45335;-85
2023/03/26 02:46:33;;;;;;;;;4.00;3.00;;;;;15.74;54.66;100427.88;5076897;28;46270;-82
2023/03/26 02:48:59;;;;;;;;;2.00;1.00;;;;;15.70;54.36;100426.97;5058472;28;45314;-86
2023/03/26 02:51:26;;;;;;;;;1.67;0.33;;;;;15.60;54.37;100425.16;5060989;28;45276;-82
2023/03/26 02:53:52;;;;;;;;;2.00;1.33;;;;;15.61;54.24;100422.50;5062897;28;45586;-84
2023/03/26 02:56:18;;;;;;;;;2.00;1.00;;;;;15.61;54.28;100425.13;5080512;28;45254;-80
2023/03/26 02:58:45;;;;;;;;;0.33;0.00;;;;;15.52;55.02;100427.72;5043083;28;45429;-79
2023/03/26 03:01:12;;;;;;;;;1.00;1.00;;;;;15.40;55.63;100423.22;5042616;28;45510;-87
2023/03/26 03:03:37;;;;;;;;;0.00;0.00;;;;;15.43;55.55;100432.91;5060763;28;45522;-83
2023/03/26 03:06:03;;;;;;;;;2.00;0.00;;;;;15.47;55.38;100427.66;5070751;28;45447;-82
2023/03/26 03:08:28;;;;;;;;;0.00;0.00;;;;;15.41;55.34;100424.97;5060497;28;45714;-84
2023/03/26 03:11:05;;;;;;;;;0.33;0.00;;;;;15.47;55.82;100424.16;5060446;28;45319;-82
2023/03/26 03:13:31;;;;;;;;;1.00;0.00;;;;;15.43;55.96;100417.09;5075728;27;45303;-90
2023/03/26 03:15:57;;;;;;;;;1.33;1.00;;;;;15.39;57.30;100428.47;5060309;28;45342;-79
2023/03/26 03:18:22;;;;;;;;;0.00;0.00;;;;;15.31;57.79;100404.72;5060353;28;45255;-83
2023/03/26 03:20:48;;;;;;;;;0.00;0.00;;;;;15.29;57.49;100403.81;5066098;28;45357;-84
2023/03/26 03:23:14;;;;;;;;;1.00;0.00;;;;;15.30;58.27;100400.34;5080987;28;45198;-83
2023/03/26 03:25:41;;;;;;;;;1.00;1.00;;;;;15.23;58.58;100404.66;5079186;28;46274;-86
2023/03/26 03:28:07;;;;;;;;;1.67;1.33;;;;;15.27;58.83;100414.34;5079510;28;45451;-85
2023/03/26 03:30:33;;;;;;;;;1.67;1.00;;;;;15.23;59.23;100398.50;5080311;28;45362;-85
2023/03/26 03:32:58;;;;;;;;;1.67;1.00;;;;;15.28;59.01;100407.34;5061831;28;45550;-88
2023/03/26 03:35:26;;;;;;;;;1.00;1.00;;;;;15.24;60.03;100395.00;5080218;28;45377;-74
2023/03/26 03:37:52;;;;;;;;;0.00;0.00;;;;;15.24;59.33;100397.63;5079395;28;45686;-76
2023/03/26 03:40:18;;;;;;;;;2.00;1.00;;;;;15.30;58.95;100403.84;5080674;28;45496;-72
2023/03/26 03:42:45;;;;;;;;;1.00;0.00;;;;;15.21;58.96;100405.50;5080333;28;45475;-73
2023/03/26 03:45:11;;;;;;;;;0.00;0.00;;;;;15.22;59.93;100402.91;5057728;28;46355;-72
2023/03/26 03:47:36;;;;;;;;;2.00;0.67;;;;;15.21;59.89;100411.66;5059560;28;45441;-76
2023/03/26 03:50:03;;;;;;;;;0.00;0.00;;;;;15.08;60.75;100381.72;5059664;28;45223;-72
2023/03/26 03:52:28;;;;;;;;;1.00;0.33;;;;;15.22;60.12;100399.38;5045708;28;45532;-72
2023/03/26 03:54:56;;;;;;;;;1.00;1.00;;;;;15.19;60.37;100404.63;5079709;28;46368;-72
2023/03/26 03:57:22;;;;;;;;;1.00;1.00;;;;;15.07;61.62;100390.47;5080325;28;45439;-74
2023/03/26 03:59:49;;;;;;;;;0.00;0.00;;;;;15.10;62.10;100397.53;5080127;28;45465;-73
2023/03/26 04:02:24;;;;;;;;;1.00;1.00;;;;;15.09;62.64;100395.75;5078466;27;45319;-72
2023/03/26 04:04:51;;;;;;;;;0.00;0.00;;;;;15.01;62.71;100397.44;5061517;28;46493;-72
2023/03/26 04:07:17;;;;;;;;;1.00;0.00;;;;;15.07;62.69;100408.03;5079422;28;45471;-72
2023/03/26 04:09:43;;;;;;;;;2.33;0.00;;;;;14.93;65.23;100405.25;5062909;28;45564;-72
2023/03/26 04:12:08;;;;;;;;;0.00;0.00;;;;;14.78;65.56;100410.34;5059115;28;45476;-76
2023/03/26 04:14:34;;;;;;;;;0.67;0.00;;;;;14.70;65.57;100400.66;5059321;28;46078;-72
2023/03/26 04:17:01;;;;;;;;;1.00;0.67;;;;;14.71;64.97;100401.53;5050387;28;45586;-72
2023/03/26 04:19:26;;;;;;;;;2.33;0.67;;;;;14.74;64.55;100396.28;5053742;28;45317;-73
2023/03/26 04:21:53;;;;;;;;;2.67;1.00;;;;;14.68;64.69;100383.06;5041625;28;45561;-73
2023/03/26 04:24:23;;;;;;;;;0.67;0.00;;;;;14.74;66.18;100406.78;5063089;28;46062;-77
2023/03/26 04:26:49;;;;;;;;;0.00;0.00;;;;;14.64;66.32;100403.22;5079041;27;45343;-83
2023/03/26 04:29:20;;;;;;;;;1.00;1.00;;;;;14.70;66.19;100421.69;5078430;28;45492;-89
2023/03/26 04:31:49;;;;;;;;;1.00;1.00;;;;;14.67;66.04;100412.88;5061047;28;45570;-82
2023/03/26 04:34:25;;;;;;;;;3.00;0.67;;;;;14.61;65.62;100397.91;5074868;28;46252;-83
2023/03/26 04:36:55;;;;;;;;;1.33;1.00;;;;;14.59;65.54;100391.75;5061784;28;45556;-87
2023/03/26 04:39:22;;;;;;;;;1.33;1.00;;;;;14.56;65.14;100402.22;5080067;28;45259;-75
2023/03/26 04:41:49;;;;;;;;;0.00;0.00;;;;;14.56;65.80;100406.56;5060945;28;45339;-84
2023/03/26 04:44:15;;;;;;;;;1.33;0.67;;;;;14.44;67.20;100412.56;5059384;28;45424;-85
2023/03/26 04:46:42;;;;;;;;;2.00;0.67;;;;;14.35;66.97;100410.72;5041261;28;45255;-90
2023/03/26 04:49:08;;;;;;;;;1.00;1.00;;;;;14.36;65.95;100406.34;5071928;28;45405;-87
2023/03/26 04:51:40;;;;;;;;;0.00;0.00;;;;;14.34;66.68;100411.56;5079572;28;45495;-72
2023/03/26 04:54:07;;;;;;;;;1.00;0.67;;;;;14.30;67.49;100413.28;5060600;28;45556;-75
2023/03/26 04:57:02;;;;;;;;;0.33;0.33;;;;;14.28;66.97;100415.03;5078012;28;45235;-77
2023/03/26 04:59:33;;;;;;;;;1.00;0.67;;;;;14.21;66.74;100405.28;5060755;28;45529;-73
2023/03/26 05:02:03;;;;;;;;;1.00;1.00;;;;;14.23;68.41;100413.19;5073609;27;47036;-72
2023/03/26 05:04:30;;;;;;;;;1.00;1.00;;;;;14.16;67.19;100401.69;5056894;28;47780;-73
2023/03/26 05:06:57;;;;;;;;;1.00;1.00;;;;;14.24;67.08;100430.72;5059556;28;45447;-72
2023/03/26 05:09:26;;;;;;;;;0.00;0.00;;;;;14.18;67.41;100422.75;5077907;28;45358;-73
2023/03/26 05:11:52;;;;;;;;;0.67;0.00;;;;;14.09;67.43;100421.78;5077462;28;45497;-73
2023/03/26 05:14:18;;;;;;;;;2.00;1.00;;;;;14.17;67.42;100435.00;5076520;28;46298;-72
2023/03/26 05:16:46;;;;;;;;;1.00;0.00;;;;;14.08;68.19;100429.63;5077279;28;45316;-72
2023/03/26 05:19:12;;;;;;;;;1.67;1.00;;;;;13.99;69.11;100426.88;5077660;28;45223;-73
2023/03/26 05:21:38;;;;;;;;;0.67;0.67;;;;;13.87;67.93;100404.84;5077566;28;45611;-72
2023/03/26 05:24:05;;;;;;;;;1.33;0.33;;;;;13.91;67.66;100403.13;5059130;28;45435;-73
2023/03/26 05:26:31;;;;;;;;;1.00;0.00;;;;;13.95;68.23;100425.94;5077518;28;45363;-72
2023/03/26 05:28:57;;;;;;;;;1.00;1.00;;;;;13.87;68.74;100420.59;5076235;28;45992;-72
2023/03/26 05:31:23;;;;;;;;;1.00;0.00;;;;;13.92;68.36;100425.88;5077957;28;45386;-73
2023/03/26 05:33:49;;;;;;;;;0.00;0.00;;;;;13.96;68.14;100434.69;5058377;28;45618;-72
2023/03/26 05:36:16;;;;;;;;;2.67;1.00;;;;;13.98;68.00;100432.97;5076631;28;45374;-73
2023/03/26 05:38:46;;;;;;;;;2.00;1.00;;;;;14.01;66.95;100419.91;5077455;27;45394;-72
2023/03/26 05:41:12;;;;;;;;;1.00;0.33;;;;;13.96;66.75;100414.56;5077443;28;45505;-71
2023/03/26 05:43:37;;;;;;;;;1.00;1.00;;;;;13.96;67.54;100422.44;5058433;28;45454;-72
2023/03/26 05:46:03;;;;;;;;;0.00;0.00;;;;;13.92;66.89;100429.38;5076679;28;45402;-72
2023/03/26 05:48:28;;;;;;;;;1.00;0.00;;;;;13.91;66.80;100430.28;5076938;28;45427;-73
2023/03/26 05:50:56;;;;;;;;;1.00;0.33;;;;;13.96;67.11;100421.56;5077808;28;45458;-72
2023/03/26 05:53:23;;;;;;;;;1.33;1.33;;;;;13.96;66.54;100409.31;5076362;28;45474;-72
2023/03/26 05:55:54;;;;;;;;;2.67;2.00;;;;;13.82;67.69;100413.50;5076869;28;45520;-72
2023/03/26 05:58:20;;;;;;;;;1.00;0.67;;;;;13.86;67.72;100421.44;5078483;28;45388;-72
2023/03/26 06:00:47;;;;;;;;;15.25;14.25;;;;;13.83;66.90;100415.28;5077927;28;45465;-72
2023/03/26 06:03:15;;;;;;;;;2.00;1.75;;;;;13.81;67.02;100417.00;5078807;28;45701;-72
2023/03/26 06:05:41;;;;;;;;;6.50;6.00;;;;;13.73;67.57;100403.75;5079641;28;45568;-73
2023/03/26 06:08:07;;;;;;;;;1.67;1.67;;;;;13.81;66.84;100423.13;5059066;28;45535;-72
2023/03/26 06:10:37;;;;;;;;;3.00;3.00;;;;;13.67;66.74;100404.53;5077745;28;45445;-73
2023/03/26 06:13:03;;;;;;;;;1.00;1.00;;;;;13.78;66.18;100422.19;5077898;28;45532;-83
2023/03/26 06:15:28;;;;;;;;;2.33;1.33;;;;;13.75;66.55;100433.53;5078249;28;45368;-82
2023/03/26 06:17:57;;;;;;;;;1.00;1.00;;;;;13.64;67.00;100428.09;5060336;28;45405;-84
2023/03/26 06:20:23;;;;;;;;;1.50;1.50;;;;;13.65;66.76;100435.13;5078503;28;45536;-81
2023/03/26 06:22:48;;;;;;;;;2.00;1.00;;;;;13.72;67.49;100443.97;5059888;28;46854;-89
2023/03/26 06:25:14;;;;;;;;;2.00;1.00;;;;;13.71;66.65;100444.84;5077045;28;45219;-83
2023/03/26 06:27:40;;;;;;;;;1.00;1.00;;;;;13.68;66.31;100435.16;5078022;28;45544;-90
2023/03/26 06:30:06;;;;;;;;;0.67;0.67;;;;;13.67;67.04;100430.78;5078088;28;45402;-86
2023/03/26 06:32:31;;;;;;;;;1.00;1.00;;;;;13.66;66.99;100428.13;5076085;27;45418;-84
2023/03/26 06:34:57;;;;;;;;;1.00;1.00;;;;;13.61;66.00;100417.56;5041938;28;45268;-85
2023/03/26 06:37:23;;;;;;;;;3.67;2.00;;;;;13.70;65.22;100430.81;5057571;28;45345;-86
2023/03/26 06:39:48;;;;;;;;;2.33;1.67;;;;;13.73;64.71;100420.38;5039342;28;45371;-85
2023/03/26 06:42:14;;;;;;;;;2.00;0.33;;;;;13.65;64.15;100408.00;5039729;28;47491;-85
2023/03/26 06:44:39;;;;;;;;;1.00;1.00;;;;;13.72;64.15;100434.34;5038802;28;45454;-81
2023/03/26 06:47:05;;;;;;;;;1.00;1.00;;;;;13.72;64.34;100436.97;5052402;28;45448;-83
2023/03/26 06:49:33;;;;;;;;;1.33;1.33;;;;;13.65;64.06;100429.88;5077791;28;45433;-90
2023/03/26 06:52:00;;;;;;;;;3.00;2.00;;;;;13.63;64.08;100428.97;5076229;28;46227;-81
2023/03/26 06:54:29;;;;;;;;;1.00;1.00;;;;;13.63;64.52;100438.59;5059285;28;45275;-86
2023/03/26 06:56:56;;;;;;;;;1.00;1.00;;;;;13.63;64.13;100447.34;5076720;28;45438;-81
2023/03/26 06:59:22;;;;;;;;;2.33;2.00;;;;;13.61;64.78;100432.41;5052025;28;45385;-72
2023/03/26 07:01:47;;;;;;;;;3.33;3.00;;;;;13.62;64.56;100440.31;5047332;28;46310;-72
2023/03/26 07:04:13;;;;;;;;;3.75;3.00;;;;;13.59;64.40;100450.78;5076335;28;45375;-72
2023/03/26 07:06:38;;;;;;;;;1.00;1.00;;;;;13.62;63.74;100452.56;5059147;28;45307;-81
2023/03/26 07:09:04;;;;;;;;;1.00;1.00;;;;;13.60;63.81;100457.78;5077720;28;45385;-81
2023/03/26 07:11:30;;;;;;;;;0.00;0.00;;;;;13.56;64.73;100457.72;5058481;28;47524;-82
2023/03/26 07:13:58;;;;;;;;;2.00;1.00;;;;;13.52;64.61;100456.78;5057397;28;45421;-80
2023/03/26 07:16:24;;;;;;;;;2.00;1.00;;;;;13.43;63.91;100448.75;5056999;28;45438;-82
2023/03/26 07:18:51;;;;;;;;;4.67;2.00;;;;;13.53;64.12;100469.06;5065423;28;46247;-90
2023/03/26 07:21:18;;;;;;;;;1.00;1.00;;;;;13.44;63.78;100450.53;5076393;28;46061;-75
2023/03/26 07:23:44;;;;;;;;;1.00;0.00;;;;;13.59;63.54;100474.41;5075813;28;45455;-85
2023/03/26 07:26:30;;;;;;;;;3.00;0.00;;;;;13.52;62.84;100452.41;5057095;28;45513;-79
2023/03/26 07:29:07;;;;;;;;;2.00;1.00;;;;;13.58;62.77;100470.00;5060409;27;45609;-86
2023/03/26 07:31:44;;;;;;;;;3.00;2.33;;;;;13.57;63.74;100470.88;5074313;27;45347;-90
2023/03/26 07:34:58;;;;;;;;;1.33;1.00;;;;;13.67;63.03;100490.28;5080333;27;45508;-81
2023/03/26 07:37:38;;;;;;;;;0.00;0.00;;;;;13.72;62.08;100481.59;5055551;28;45417;-84
2023/03/26 07:40:32;;;;;;;;;2.67;1.33;;;;;13.75;61.96;100479.88;5077833;27;45465;-74
2023/03/26 07:43:28;;;;;;;;;2.00;1.00;;;;;13.65;62.40;100474.50;5077762;28;46005;-87
2023/03/26 07:45:54;;;;;;;;;2.33;2.33;;;;;13.75;61.95;100491.28;5077968;28;45540;-82
2023/03/26 07:48:26;;;;;;;;;2.00;1.00;;;;;13.77;61.86;100500.09;5077547;28;45438;-83
2023/03/26 07:50:52;;;;;;;;;5.00;4.00;;;;;13.79;61.89;100494.84;5060337;28;45359;-75
2023/03/26 07:53:19;;;;;;;;;3.00;2.00;;;;;13.74;61.78;100484.25;5078249;28;45473;-77
2023/03/26 07:55:59;;;;;;;;;2.00;2.00;;;;;13.86;61.61;100505.47;5079097;28;45836;-74
2023/03/26 07:58:44;;;;;;;;;1.00;1.00;;;;;13.89;60.07;100510.78;5077982;28;45468;-78
2023/03/26 08:01:27;;;;;;;;;3.00;2.00;;;;;13.95;60.92;100520.50;5076950;28;45421;-74
2023/03/26 08:04:08;;;;;;;;;1.33;1.00;;;;;14.00;60.76;100528.44;5076530;27;45623;-73
2023/03/26 08:06:38;;;;;;;;;1.33;1.00;;;;;13.98;60.53;100531.03;5076096;28;45605;-73
2023/03/26 08:09:23;;;;;;;;;2.00;1.00;;;;;14.00;61.04;100541.56;5074764;27;45477;-74
2023/03/26 08:12:24;;;;;;;;;1.00;1.00;;;;;13.99;62.23;100538.06;5077255;28;45782;-69
2023/03/26 08:15:28;;;;;;;;;2.00;1.50;;;;;14.02;62.76;100529.34;5036249;28;45534;-70
2023/03/26 08:18:26;;;;;;;;;0.67;0.67;;;;;14.06;62.53;100547.78;5074146;27;45458;-73
2023/03/26 08:21:09;;;;;;;;;3.33;0.00;;;;;14.08;62.33;100550.44;5075842;28;45312;-73
2023/03/26 08:24:02;;;;;;;;;4.67;4.33;;;;;14.15;62.36;100539.19;5077152;28;45277;-72
2023/03/26 08:26:28;;;;;;;;;8.00;7.00;;;;;14.21;61.32;100547.16;5070863;28;45478;-73
2023/03/26 08:29:16;;;;;;;;;8.00;6.00;;;;;14.15;62.53;100541.81;5077907;27;45481;-71
2023/03/26 08:31:45;;;;;;;;;4.00;3.00;;;;;14.22;61.06;100554.16;5072193;27;45450;-72
2023/03/26 08:34:12;;;;;;;;;2.67;1.00;;;;;14.16;61.45;100543.56;5074003;28;45510;-71
2023/03/26 08:36:38;;;;;;;;;4.00;2.00;;;;;14.22;61.92;100548.91;5075507;27;45611;-86
2023/03/26 08:39:13;;;;;;;;;2.00;2.00;;;;;14.30;61.53;100555.19;5084386;27;45548;-74
2023/03/26 08:42:05;;;;;;;;;2.67;2.00;;;;;14.38;61.61;100564.91;5075983;28;45462;-72
2023/03/26 08:44:56;;;;;;;;;2.33;1.33;;;;;14.42;61.32;100564.97;5076519;28;45466;-72
2023/03/26 08:48:05;;;;;;;;;6.33;4.00;;;;;14.42;59.13;100572.84;5072587;28;45491;-72
2023/03/26 08:50:42;;;;;;;;;1.00;1.00;;;;;14.41;60.15;100579.00;5062629;28;45455;-71
2023/03/26 08:53:34;;;;;;;;;2.33;2.00;;;;;14.43;60.23;100584.28;5076287;28;45494;-73
2023/03/26 08:56:27;;;;;;;;;5.00;4.33;;;;;14.47;60.14;100597.47;5073755;27;45658;-72
2023/03/26 08:59:15;;;;;;;;;3.00;2.00;;;;;14.44;60.30;100591.28;5064068;28;46242;-72
2023/03/26 09:02:00;;;;;;;;;4.00;3.50;;;;;14.56;60.55;100580.97;5063640;28;45348;-73
2023/03/26 09:04:34;;;;;;;;;5.25;3.75;;;;;14.71;58.80;100580.31;5076786;28;45551;-77
2023/03/26 09:07:05;;;;;;;;;3.00;1.00;;;;;14.82;58.39;100580.44;5071031;27;45458;-73
2023/03/26 09:09:49;;;;;;;;;1.33;1.33;;;;;14.89;57.45;100585.81;5066822;28;45636;-79
2023/03/26 09:12:48;;;;;;;;;14.50;11.50;;;;;15.10;57.86;100586.97;5056005;28;45595;-76
2023/03/26 09:15:36;;;;;;;;;9.25;9.25;;;;;15.32;57.57;100585.47;5036968;27;45524;-72
2023/03/26 09:18:30;;;;;;;;;16.00;11.50;;;;;15.63;56.87;100576.13;5074368;28;45568;-73
2023/03/26 09:21:21;;;;;;;;;5.00;4.67;;;;;16.06;54.77;100584.44;5076794;28;45458;-79
2023/03/26 09:24:26;;;;;;;;;4.00;3.00;;;;;16.40;53.72;100592.63;5059508;28;45528;-72
2023/03/26 09:27:15;;;;;;;;;4.33;3.00;;;;;16.65;53.43;100600.66;5078009;28;45495;-74
2023/03/26 09:29:46;;;;;;;;;2.00;2.00;;;;;16.83;53.20;100590.28;5065145;28;45326;-75
2023/03/26 09:32:27;;;;;;;;;4.33;2.33;;;;;16.88;51.09;100592.91;5077990;28;46190;-90
2023/03/26 09:34:58;;;;;;;;;1.67;1.33;;;;;16.89;50.51;100586.75;5076623;28;45409;-76
2023/03/26 09:38:10;;;;;;;;;4.67;2.00;;;;;16.70;49.50;100606.88;5077396;28;45425;-78
2023/03/26 09:40:42;;;;;;;;;4.33;2.33;;;;;16.74;49.65;100600.72;5078895;28;45560;-85
2023/03/26 09:43:26;;;;;;;;;1.00;1.00;;;;;16.60;49.31;100605.94;5078585;28;46232;-79
2023/03/26 09:46:09;;;;;;;;;4.00;2.00;;;;;16.64;49.62;100606.84;5057450;28;45509;-72
2023/03/26 09:49:12;;;;;;;;;8.33;5.00;;;;;16.63;49.19;100605.06;5077152;27;45567;-75
2023/03/26 09:51:38;;;;;;;;;2.00;1.00;;;;;16.64;48.82;100609.47;5060986;27;45549;-88
2023/03/26 09:54:16;;;;;;;;;8.33;4.00;;;;;16.68;48.39;100595.44;5059216;28;45835;-76
2023/03/26 09:57:01;;;;;;;;;5.00;2.00;;;;;16.72;48.03;100591.06;5076262;28;45356;-73
2023/03/26 10:00:01;;;;;;;;;1.33;0.00;;;;;16.64;48.97;100565.50;5074944;28;45438;-82
2023/03/26 10:02:43;;;;;;;;;8.33;7.33;;;;;16.79;48.39;100588.47;5052714;28;45371;-79
2023/03/26 10:05:25;;;;;;;;;4.33;4.00;;;;;16.70;47.05;100613.00;5057754;28;46199;-88
2023/03/26 10:07:57;;;;;;;;;2.00;1.00;;;;;16.52;46.57;100614.66;5047751;28;45603;-81
2023/03/26 10:10:35;;;;;;;;;1.00;1.00;;;;;16.46;46.76;100605.84;5058609;28;45406;-78
2023/03/26 10:13:23;;;;;;;;;1.00;1.00;;;;;16.66;46.34;100611.22;5058886;28;45483;-73
2023/03/26 10:16:10;;;;;;;;;1.33;0.67;;;;;16.69;45.48;100591.91;5034218;28;45528;-82
2023/03/26 10:19:04;;;;;;;;;2.67;1.00;;;;;16.70;44.96;100613.00;5057230;28;45481;-71
2023/03/26 10:21:35;;;;;;;;;2.00;1.00;;;;;16.66;45.55;100605.09;5058071;28;45492;-73
2023/03/26 10:24:19;;;;;;;;;0.33;0.33;;;;;16.83;45.19;100605.19;5058324;28;45605;-72
2023/03/26 10:27:23;;;;;;;;;1.00;1.00;;;;;16.90;45.25;100599.09;5072622;28;46554;-75
2023/03/26 10:30:19;;;;;;;;;2.67;2.00;;;;;16.95;45.07;100600.00;5073422;28;46550;-85
2023/03/26 10:33:04;;;;;;;;;2.00;1.00;;;;;16.81;44.14;100584.09;5074596;28;45541;-82
2023/03/26 10:35:44;;;;;;;;;1.00;1.00;;;;;16.95;44.85;100593.81;5058202;28;45492;-87
2023/03/26 10:38:14;;;;;;;;;0.67;0.00;;;;;17.04;44.22;100589.47;5083973;27;45509;-86
2023/03/26 10:40:59;;;;;;;;;3.00;1.33;;;;;17.10;44.12;100596.53;5077563;28;45554;-78
2023/03/26 10:44:20;;;;;;;;;4.00;1.00;;;;;17.29;43.32;100582.53;5073772;28;45330;-83
2023/03/26 10:47:12;;;;;;;;;1.33;1.33;;;;;17.40;43.06;100565.84;5026834;28;45500;-80
2023/03/26 10:50:00;;;;;;;;;1.00;1.00;;;;;17.58;43.02;100587.00;5073928;28;45401;-87
2023/03/26 10:52:40;;;;;;;;;2.33;2.00;;;;;17.73;43.02;100595.84;5075039;28;45469;-82
2023/03/26 10:55:15;;;;;;;;;2.67;1.00;;;;;17.73;42.47;100587.91;5057638;28;45607;-88
2023/03/26 10:57:51;;;;;;;;;2.33;0.00;;;;;17.63;42.48;100553.56;5074201;28;45516;-72
2023/03/26 11:00:26;;;;;;;;;2.00;1.00;;;;;18.04;42.28;100589.72;5048371;28;46925;-79
2023/03/26 11:03:13;;;;;;;;;5.00;4.33;;;;;18.34;41.32;100600.28;5067191;28;45441;-73
2023/03/26 11:05:42;;;;;;;;;0.67;0.00;;;;;18.28;40.83;100588.84;5071941;28;45440;-77
2023/03/26 11:08:24;;;;;;;;;0.67;0.00;;;;;17.71;41.75;100484.88;5075678;27;45376;-73
2023/03/26 11:11:09;;;;;;;;;0.33;0.33;;;;;18.42;41.26;100590.56;5074038;27;46062;-72
2023/03/26 11:13:43;;;;;;;;;0.67;0.33;;;;;18.20;41.56;100587.06;5081897;28;45258;-71
2023/03/26 11:16:39;;;;;;;;;0.67;0.33;;;;;18.08;40.48;100596.78;5081445;27;45212;-72
2023/03/26 11:19:11;;;;;;;;;0.33;0.33;;;;;18.07;40.69;100596.78;5062882;28;45305;-73
2023/03/26 11:21:51;;;;;;;;;0.33;0.33;;;;;17.93;40.67;100558.91;5078455;28;45392;-72
2023/03/26 11:24:33;;;;;;;;;1.67;1.00;;;;;18.15;40.48;100602.06;5061723;28;45358;-74
2023/03/26 11:27:26;;;;;;;;;0.33;0.33;;;;;18.16;40.08;100595.88;5070652;28;45596;-75
2023/03/26 11:30:02;;;;;;;;;0.00;0.00;;;;;17.19;39.84;100445.22;5092695;27;45295;-80
2023/03/26 11:32:41;;;;;;;;;0.00;0.00;;;;;17.91;40.10;100569.47;5080711;28;45884;-73
2023/03/26 11:35:30;;;;;;;;;1.00;0.00;;;;;17.63;40.81;100590.53;5061220;28;45453;-72
2023/03/26 11:38:01;;;;;;;;;1.33;1.33;;;;;17.42;41.87;100586.06;5079057;27;45455;-73
2023/03/26 11:40:37;;;;;;;;;2.00;1.67;;;;;17.67;42.04;100570.28;5078808;28;45536;-78
2023/03/26 11:43:08;;;;;;;;;1.33;0.67;;;;;18.18;41.50;100583.53;5071708;28;46147;-85
2023/03/26 11:45:38;;;;;;;;;1.67;0.00;;;;;18.58;41.08;100572.91;5060099;28;45351;-77
2023/03/26 11:48:06;;;;;;;;;0.33;0.33;;;;;18.78;39.27;100583.44;5077144;28;45480;-77
2023/03/26 11:50:37;;;;;;;;;0.00;0.00;;;;;18.57;39.59;100579.97;5079592;28;45310;-94
2023/03/26 11:53:12;;;;;;;;;0.67;0.67;;;;;18.40;39.24;100593.25;5069379;28;46347;-76
2023/03/26 11:55:47;;;;;;;;;1.67;0.00;;;;;18.26;39.59;100587.06;5059772;28;45514;-87